sensor_id;sensor_type;location;lat;lon;timestamp;P1;durP1;ratioP1;P2;durP2;ratioP2
20144;SDS011;10233;50.814;6.590;2022-09-09T00:00:17;0.90;;;0.40;;
20144;SDS011;10233;50.814;6.590;2022-09-09T00:03:00;2.03;;;0.30;;
20144;SDS011;10233;50.814;6.590;2022-09-09T00:04:13;1.08;;;0.43;;
20144;SDS011;10233;50.814;6.590;2022-09-09T00:05:27;2.38;;;0.50;;
20144;SDS011;10233;50.814;6.590;2022-09-09T00:06:43;2.53;;;0.40;;
20144;SDS011;10233;50.814;6.590;2022-09-09T00:07:47;0.75;;;0.50;;
20144;SDS011;10233;50.814;6.590;2022-09-09T00:11:24;0.77;;;0.35;;
20144;SDS011;10233;50.814;6.590;2022-09-09T00:13:37;0.43;;;0.30;;
20144;SDS011;10233;50.814;6.590;2022-09-09T00:14:56;0.57;;;0.30;;
20144;SDS011;10233;50.814;6.590;2022-09-09T00:16:17;1.80;;;0.43;;
20144;SDS011;10233;50.814;6.590;2022-09-09T00:17:34;4.13;;;0.50;;
20144;SDS011;10233;50.814;6.590;2022-09-09T00:19:00;3.15;;;0.70;;
20144;SDS011;10233;50.814;6.590;2022-09-09T00:20:21;1.15;;;0.50;;
20144;SDS011;10233;50.814;6.590;2022-09-09T00:21:45;2.03;;;0.43;;
20144;SDS011;10233;50.814;6.590;2022-09-09T00:22:58;2.13;;;0.32;;
20144;SDS011;10233;50.814;6.590;2022-09-09T00:25:42;2.80;;;0.40;;
20144;SDS011;10233;50.814;6.590;2022-09-09T00:27:14;1.45;;;0.32;;
20144;SDS011;10233;50.814;6.590;2022-09-09T00:28:23;0.70;;;0.30;;
20144;SDS011;10233;50.814;6.590;2022-09-09T00:30:29;1.50;;;0.30;;
20144;SDS011;10233;50.814;6.590;2022-09-09T00:31:34;1.38;;;0.40;;
20144;SDS011;10233;50.814;6.590;2022-09-09T00:32:35;1.58;;;0.30;;
20144;SDS011;10233;50.814;6.590;2022-09-09T00:33:35;1.20;;;0.47;;
20144;SDS011;10233;50.814;6.590;2022-09-09T00:34:37;1.27;;;0.50;;
20144;SDS011;10233;50.814;6.590;2022-09-09T00:35:50;0.85;;;0.35;;
20144;SDS011;10233;50.814;6.590;2022-09-09T00:36:54;1.15;;;0.32;;
20144;SDS011;10233;50.814;6.590;2022-09-09T00:37:56;0.80;;;0.30;;
20144;SDS011;10233;50.814;6.590;2022-09-09T00:39:02;0.50;;;0.40;;
20144;SDS011;10233;50.814;6.590;2022-09-09T00:40:08;2.30;;;0.40;;
20144;SDS011;10233;50.814;6.590;2022-09-09T00:41:26;2.80;;;0.40;;
20144;SDS011;10233;50.814;6.590;2022-09-09T00:43:01;2.75;;;0.55;;
20144;SDS011;10233;50.814;6.590;2022-09-09T00:48:35;0.85;;;0.30;;
20144;SDS011;10233;50.814;6.590;2022-09-09T00:51:00;2.20;;;0.50;;
20144;SDS011;10233;50.814;6.590;2022-09-09T00:52:32;1.10;;;0.20;;
20144;SDS011;10233;50.814;6.590;2022-09-09T00:53:51;0.98;;;0.40;;
20144;SDS011;10233;50.814;6.590;2022-09-09T00:56:30;2.88;;;0.30;;
20144;SDS011;10233;50.814;6.590;2022-09-09T00:57:43;0.80;;;0.47;;
20144;SDS011;10233;50.814;6.590;2022-09-09T00:58:49;0.32;;;0.25;;
20144;SDS011;10233;50.814;6.590;2022-09-09T01:00:16;1.80;;;0.40;;
20144;SDS011;10233;50.814;6.590;2022-09-09T01:01:25;2.00;;;0.43;;
20144;SDS011;10233;50.814;6.590;2022-09-09T01:02:26;0.80;;;0.32;;
20144;SDS011;10233;50.814;6.590;2022-09-09T01:03:34;0.90;;;0.32;;
20144;SDS011;10233;50.814;6.590;2022-09-09T01:04:36;1.60;;;0.50;;
20144;SDS011;10233;50.814;6.590;2022-09-09T01:07:15;1.00;;;0.30;;
20144;SDS011;10233;50.814;6.590;2022-09-09T01:10:56;1.30;;;0.40;;
20144;SDS011;10233;50.814;6.590;2022-09-09T01:12:24;3.03;;;1.00;;
20144;SDS011;10233;50.814;6.590;2022-09-09T01:13:31;2.70;;;0.40;;
20144;SDS011;10233;50.814;6.590;2022-09-09T01:14:40;3.67;;;0.50;;
20144;SDS011;10233;50.814;6.590;2022-09-09T01:15:48;0.57;;;0.40;;
20144;SDS011;10233;50.814;6.590;2022-09-09T01:16:50;0.82;;;0.40;;
20144;SDS011;10233;50.814;6.590;2022-09-09T01:19:15;1.03;;;0.30;;
20144;SDS011;10233;50.814;6.590;2022-09-09T01:21:58;0.75;;;0.40;;
20144;SDS011;10233;50.814;6.590;2022-09-09T01:25:10;1.85;;;0.50;;
20144;SDS011;10233;50.814;6.590;2022-09-09T01:26:37;1.15;;;0.50;;
20144;SDS011;10233;50.814;6.590;2022-09-09T01:27:49;1.33;;;0.60;;
20144;SDS011;10233;50.814;6.590;2022-09-09T01:28:52;1.48;;;0.55;;
20144;SDS011;10233;50.814;6.590;2022-09-09T01:29:57;2.33;;;0.43;;
20144;SDS011;10233;50.814;6.590;2022-09-09T01:31:02;1.42;;;0.50;;
20144;SDS011;10233;50.814;6.590;2022-09-09T01:33:42;2.45;;;0.50;;
20144;SDS011;10233;50.814;6.590;2022-09-09T01:34:43;3.03;;;0.73;;
20144;SDS011;10233;50.814;6.590;2022-09-09T01:38:13;2.03;;;0.50;;
20144;SDS011;10233;50.814;6.590;2022-09-09T01:39:14;2.07;;;0.60;;
20144;SDS011;10233;50.814;6.590;2022-09-09T01:40:16;3.05;;;0.55;;
20144;SDS011;10233;50.814;6.590;2022-09-09T01:41:17;1.95;;;1.00;;
20144;SDS011;10233;50.814;6.590;2022-09-09T01:42:23;5.18;;;0.70;;
20144;SDS011;10233;50.814;6.590;2022-09-09T01:43:24;2.20;;;0.67;;
20144;SDS011;10233;50.814;6.590;2022-09-09T01:44:25;2.92;;;0.70;;
20144;SDS011;10233;50.814;6.590;2022-09-09T01:45:28;3.75;;;0.70;;
20144;SDS011;10233;50.814;6.590;2022-09-09T01:46:29;1.90;;;0.70;;
20144;SDS011;10233;50.814;6.590;2022-09-09T01:47:30;2.45;;;0.73;;
20144;SDS011;10233;50.814;6.590;2022-09-09T01:48:41;4.00;;;0.80;;
20144;SDS011;10233;50.814;6.590;2022-09-09T01:49:44;2.42;;;0.55;;
20144;SDS011;10233;50.814;6.590;2022-09-09T01:50:53;2.70;;;0.93;;
20144;SDS011;10233;50.814;6.590;2022-09-09T01:51:55;3.93;;;1.20;;
20144;SDS011;10233;50.814;6.590;2022-09-09T01:53:04;1.20;;;0.70;;
20144;SDS011;10233;50.814;6.590;2022-09-09T01:54:07;3.20;;;0.65;;
20144;SDS011;10233;50.814;6.590;2022-09-09T01:55:08;3.05;;;0.73;;
20144;SDS011;10233;50.814;6.590;2022-09-09T01:57:27;3.55;;;0.75;;
20144;SDS011;10233;50.814;6.590;2022-09-09T01:58:40;3.00;;;0.80;;
20144;SDS011;10233;50.814;6.590;2022-09-09T02:01:17;2.45;;;0.75;;
20144;SDS011;10233;50.814;6.590;2022-09-09T02:03:51;2.00;;;0.90;;
20144;SDS011;10233;50.814;6.590;2022-09-09T02:04:55;3.25;;;0.88;;
20144;SDS011;10233;50.814;6.590;2022-09-09T02:07:41;5.72;;;0.70;;
20144;SDS011;10233;50.814;6.590;2022-09-09T02:08:57;2.20;;;0.57;;
20144;SDS011;10233;50.814;6.590;2022-09-09T02:10:02;4.25;;;0.70;;
20144;SDS011;10233;50.814;6.590;2022-09-09T02:11:15;4.35;;;0.80;;
20144;SDS011;10233;50.814;6.590;2022-09-09T02:12:29;1.48;;;0.60;;
20144;SDS011;10233;50.814;6.590;2022-09-09T02:13:32;4.38;;;1.00;;
20144;SDS011;10233;50.814;6.590;2022-09-09T02:14:39;3.40;;;0.80;;
20144;SDS011;10233;50.814;6.590;2022-09-09T02:17:03;3.10;;;0.80;;
20144;SDS011;10233;50.814;6.590;2022-09-09T02:18:34;1.65;;;0.88;;
20144;SDS011;10233;50.814;6.590;2022-09-09T02:19:41;2.15;;;0.80;;
20144;SDS011;10233;50.814;6.590;2022-09-09T02:20:55;4.10;;;0.80;;
20144;SDS011;10233;50.814;6.590;2022-09-09T02:21:59;4.38;;;0.95;;
20144;SDS011;10233;50.814;6.590;2022-09-09T02:23:02;3.58;;;1.00;;
20144;SDS011;10233;50.814;6.590;2022-09-09T02:24:05;3.25;;;0.80;;
20144;SDS011;10233;50.814;6.590;2022-09-09T02:25:15;4.88;;;0.80;;
20144;SDS011;10233;50.814;6.590;2022-09-09T02:26:19;6.30;;;0.93;;
20144;SDS011;10233;50.814;6.590;2022-09-09T02:27:27;3.92;;;1.00;;
20144;SDS011;10233;50.814;6.590;2022-09-09T02:28:29;2.90;;;1.27;;
20144;SDS011;10233;50.814;6.590;2022-09-09T02:29:34;3.47;;;0.95;;
20144;SDS011;10233;50.814;6.590;2022-09-09T02:30:38;2.13;;;1.15;;
20144;SDS011;10233;50.814;6.590;2022-09-09T02:31:41;3.97;;;0.95;;
20144;SDS011;10233;50.814;6.590;2022-09-09T02:32:50;2.22;;;1.30;;
20144;SDS011;10233;50.814;6.590;2022-09-09T02:33:56;4.38;;;1.20;;
20144;SDS011;10233;50.814;6.590;2022-09-09T02:35:05;2.97;;;0.77;;
20144;SDS011;10233;50.814;6.590;2022-09-09T02:36:09;3.97;;;0.82;;
20144;SDS011;10233;50.814;6.590;2022-09-09T02:37:16;4.57;;;0.88;;
20144;SDS011;10233;50.814;6.590;2022-09-09T02:38:24;2.60;;;1.00;;
20144;SDS011;10233;50.814;6.590;2022-09-09T02:39:37;3.05;;;0.80;;
20144;SDS011;10233;50.814;6.590;2022-09-09T02:40:40;3.28;;;1.10;;
20144;SDS011;10233;50.814;6.590;2022-09-09T02:41:41;4.57;;;0.93;;
20144;SDS011;10233;50.814;6.590;2022-09-09T02:42:43;2.47;;;1.10;;
20144;SDS011;10233;50.814;6.590;2022-09-09T02:43:45;3.30;;;0.93;;
20144;SDS011;10233;50.814;6.590;2022-09-09T02:44:48;6.13;;;1.10;;
20144;SDS011;10233;50.814;6.590;2022-09-09T02:45:51;2.50;;;0.80;;
20144;SDS011;10233;50.814;6.590;2022-09-09T02:47:47;3.22;;;1.20;;
20144;SDS011;10233;50.814;6.590;2022-09-09T02:48:58;4.13;;;1.10;;
20144;SDS011;10233;50.814;6.590;2022-09-09T02:51:24;2.53;;;1.02;;
20144;SDS011;10233;50.814;6.590;2022-09-09T02:53:48;2.80;;;0.80;;
20144;SDS011;10233;50.814;6.590;2022-09-09T02:55:11;1.80;;;1.00;;
20144;SDS011;10233;50.814;6.590;2022-09-09T02:56:21;2.17;;;1.00;;
20144;SDS011;10233;50.814;6.590;2022-09-09T02:57:29;3.47;;;0.97;;
20144;SDS011;10233;50.814;6.590;2022-09-09T02:58:32;3.83;;;1.10;;
20144;SDS011;10233;50.814;6.590;2022-09-09T02:59:38;3.55;;;1.10;;
20144;SDS011;10233;50.814;6.590;2022-09-09T03:00:40;4.22;;;0.90;;
20144;SDS011;10233;50.814;6.590;2022-09-09T03:01:41;4.47;;;1.10;;
20144;SDS011;10233;50.814;6.590;2022-09-09T03:02:43;3.90;;;1.10;;
20144;SDS011;10233;50.814;6.590;2022-09-09T03:03:45;4.32;;;1.20;;
20144;SDS011;10233;50.814;6.590;2022-09-09T03:04:49;3.95;;;1.10;;
20144;SDS011;10233;50.814;6.590;2022-09-09T03:05:53;8.88;;;1.27;;
20144;SDS011;10233;50.814;6.590;2022-09-09T03:06:54;4.07;;;1.23;;
20144;SDS011;10233;50.814;6.590;2022-09-09T03:07:55;8.13;;;1.35;;
20144;SDS011;10233;50.814;6.590;2022-09-09T03:08:56;2.63;;;0.85;;
20144;SDS011;10233;50.814;6.590;2022-09-09T03:10:02;5.70;;;1.15;;
20144;SDS011;10233;50.814;6.590;2022-09-09T03:11:03;3.65;;;0.95;;
20144;SDS011;10233;50.814;6.590;2022-09-09T03:12:07;5.28;;;1.10;;
20144;SDS011;10233;50.814;6.590;2022-09-09T03:13:08;2.60;;;0.90;;
20144;SDS011;10233;50.814;6.590;2022-09-09T03:14:12;3.80;;;0.90;;
20144;SDS011;10233;50.814;6.590;2022-09-09T03:15:14;5.70;;;1.20;;
20144;SDS011;10233;50.814;6.590;2022-09-09T03:16:15;3.90;;;1.27;;
20144;SDS011;10233;50.814;6.590;2022-09-09T03:17:19;4.43;;;1.30;;
20144;SDS011;10233;50.814;6.590;2022-09-09T03:18:25;6.43;;;1.30;;
20144;SDS011;10233;50.814;6.590;2022-09-09T03:19:28;5.40;;;1.10;;
20144;SDS011;10233;50.814;6.590;2022-09-09T03:20:30;4.07;;;0.90;;
20144;SDS011;10233;50.814;6.590;2022-09-09T03:21:31;4.07;;;1.10;;
20144;SDS011;10233;50.814;6.590;2022-09-09T03:22:32;4.43;;;1.08;;
20144;SDS011;10233;50.814;6.590;2022-09-09T03:23:34;3.20;;;1.05;;
20144;SDS011;10233;50.814;6.590;2022-09-09T03:24:37;8.68;;;0.95;;
20144;SDS011;10233;50.814;6.590;2022-09-09T03:25:38;7.80;;;1.20;;
20144;SDS011;10233;50.814;6.590;2022-09-09T03:26:40;2.92;;;0.70;;
20144;SDS011;10233;50.814;6.590;2022-09-09T03:27:44;2.20;;;0.95;;
20144;SDS011;10233;50.814;6.590;2022-09-09T03:28:47;6.28;;;1.20;;
20144;SDS011;10233;50.814;6.590;2022-09-09T03:29:51;5.05;;;1.27;;
20144;SDS011;10233;50.814;6.590;2022-09-09T03:30:57;4.53;;;1.30;;
20144;SDS011;10233;50.814;6.590;2022-09-09T03:31:58;3.65;;;0.98;;
20144;SDS011;10233;50.814;6.590;2022-09-09T03:32:59;4.75;;;1.20;;
20144;SDS011;10233;50.814;6.590;2022-09-09T03:34:04;4.38;;;0.85;;
20144;SDS011;10233;50.814;6.590;2022-09-09T03:35:07;4.15;;;1.00;;
20144;SDS011;10233;50.814;6.590;2022-09-09T03:36:08;4.22;;;1.10;;
20144;SDS011;10233;50.814;6.590;2022-09-09T03:37:09;5.15;;;1.10;;
20144;SDS011;10233;50.814;6.590;2022-09-09T03:38:10;3.20;;;1.05;;
20144;SDS011;10233;50.814;6.590;2022-09-09T03:39:11;2.72;;;1.02;;
20144;SDS011;10233;50.814;6.590;2022-09-09T03:40:14;2.30;;;0.90;;
20144;SDS011;10233;50.814;6.590;2022-09-09T03:41:19;4.45;;;0.93;;
20144;SDS011;10233;50.814;6.590;2022-09-09T03:42:20;3.42;;;1.08;;
20144;SDS011;10233;50.814;6.590;2022-09-09T03:43:27;2.38;;;0.70;;
20144;SDS011;10233;50.814;6.590;2022-09-09T03:44:28;4.13;;;1.10;;
20144;SDS011;10233;50.814;6.590;2022-09-09T03:45:29;3.50;;;1.05;;
20144;SDS011;10233;50.814;6.590;2022-09-09T03:46:30;2.37;;;0.80;;
20144;SDS011;10233;50.814;6.590;2022-09-09T03:47:32;4.90;;;1.02;;
20144;SDS011;10233;50.814;6.590;2022-09-09T03:48:38;2.45;;;1.08;;
20144;SDS011;10233;50.814;6.590;2022-09-09T03:49:39;4.28;;;0.80;;
20144;SDS011;10233;50.814;6.590;2022-09-09T03:50:47;4.03;;;1.10;;
20144;SDS011;10233;50.814;6.590;2022-09-09T03:51:49;2.35;;;0.80;;
20144;SDS011;10233;50.814;6.590;2022-09-09T03:52:49;2.30;;;0.70;;
20144;SDS011;10233;50.814;6.590;2022-09-09T03:53:54;4.38;;;0.90;;
20144;SDS011;10233;50.814;6.590;2022-09-09T03:54:57;4.15;;;1.13;;
20144;SDS011;10233;50.814;6.590;2022-09-09T03:55:57;2.17;;;0.80;;
20144;SDS011;10233;50.814;6.590;2022-09-09T03:57:00;3.78;;;1.10;;
20144;SDS011;10233;50.814;6.590;2022-09-09T03:58:01;7.13;;;1.35;;
20144;SDS011;10233;50.814;6.590;2022-09-09T03:59:03;2.20;;;0.90;;
20144;SDS011;10233;50.814;6.590;2022-09-09T04:00:05;3.47;;;0.98;;
20144;SDS011;10233;50.814;6.590;2022-09-09T04:01:16;5.03;;;0.88;;
20144;SDS011;10233;50.814;6.590;2022-09-09T04:02:18;4.67;;;1.17;;
20144;SDS011;10233;50.814;6.590;2022-09-09T04:03:18;2.55;;;0.95;;
20144;SDS011;10233;50.814;6.590;2022-09-09T04:04:19;4.17;;;0.80;;
20144;SDS011;10233;50.814;6.590;2022-09-09T04:05:20;3.13;;;1.00;;
20144;SDS011;10233;50.814;6.590;2022-09-09T04:06:22;3.95;;;1.00;;
20144;SDS011;10233;50.814;6.590;2022-09-09T04:07:22;1.83;;;1.00;;
20144;SDS011;10233;50.814;6.590;2022-09-09T04:08:23;2.10;;;0.77;;
20144;SDS011;10233;50.814;6.590;2022-09-09T04:09:27;3.78;;;1.00;;
20144;SDS011;10233;50.814;6.590;2022-09-09T04:10:28;4.20;;;1.00;;
20144;SDS011;10233;50.814;6.590;2022-09-09T04:11:30;4.60;;;1.00;;
20144;SDS011;10233;50.814;6.590;2022-09-09T04:12:33;5.70;;;0.93;;
20144;SDS011;10233;50.814;6.590;2022-09-09T04:13:35;2.77;;;0.90;;
20144;SDS011;10233;50.814;6.590;2022-09-09T04:14:39;5.10;;;1.00;;
20144;SDS011;10233;50.814;6.590;2022-09-09T04:15:40;4.63;;;1.00;;
20144;SDS011;10233;50.814;6.590;2022-09-09T04:16:41;5.18;;;1.20;;
20144;SDS011;10233;50.814;6.590;2022-09-09T04:17:44;3.80;;;0.93;;
20144;SDS011;10233;50.814;6.590;2022-09-09T04:18:45;4.97;;;1.00;;
20144;SDS011;10233;50.814;6.590;2022-09-09T04:19:48;4.53;;;1.00;;
20144;SDS011;10233;50.814;6.590;2022-09-09T04:20:49;6.28;;;1.00;;
20144;SDS011;10233;50.814;6.590;2022-09-09T04:21:52;4.82;;;1.20;;
20144;SDS011;10233;50.814;6.590;2022-09-09T04:22:55;2.03;;;0.90;;
20144;SDS011;10233;50.814;6.590;2022-09-09T04:23:56;2.50;;;1.05;;
20144;SDS011;10233;50.814;6.590;2022-09-09T04:24:57;1.65;;;0.80;;
20144;SDS011;10233;50.814;6.590;2022-09-09T04:25:58;2.27;;;0.80;;
20144;SDS011;10233;50.814;6.590;2022-09-09T04:27:00;3.55;;;1.05;;
20144;SDS011;10233;50.814;6.590;2022-09-09T04:28:00;3.70;;;0.88;;
20144;SDS011;10233;50.814;6.590;2022-09-09T04:29:02;2.72;;;0.85;;
20144;SDS011;10233;50.814;6.590;2022-09-09T04:30:03;4.65;;;1.10;;
20144;SDS011;10233;50.814;6.590;2022-09-09T04:31:07;2.13;;;0.80;;
20144;SDS011;10233;50.814;6.590;2022-09-09T04:32:10;5.20;;;1.05;;
20144;SDS011;10233;50.814;6.590;2022-09-09T04:33:12;3.60;;;1.13;;
20144;SDS011;10233;50.814;6.590;2022-09-09T04:34:14;2.13;;;0.63;;
20144;SDS011;10233;50.814;6.590;2022-09-09T04:35:15;2.25;;;0.80;;
20144;SDS011;10233;50.814;6.590;2022-09-09T04:36:16;4.00;;;0.93;;
20144;SDS011;10233;50.814;6.590;2022-09-09T04:37:17;3.15;;;1.02;;
20144;SDS011;10233;50.814;6.590;2022-09-09T04:38:18;3.22;;;0.90;;
20144;SDS011;10233;50.814;6.590;2022-09-09T04:39:19;5.07;;;1.00;;
20144;SDS011;10233;50.814;6.590;2022-09-09T04:40:20;4.53;;;1.13;;
20144;SDS011;10233;50.814;6.590;2022-09-09T04:41:22;2.67;;;1.00;;
20144;SDS011;10233;50.814;6.590;2022-09-09T04:42:26;2.45;;;1.00;;
20144;SDS011;10233;50.814;6.590;2022-09-09T04:43:27;3.47;;;1.10;;
20144;SDS011;10233;50.814;6.590;2022-09-09T04:44:28;4.00;;;0.90;;
20144;SDS011;10233;50.814;6.590;2022-09-09T04:45:29;3.45;;;1.05;;
20144;SDS011;10233;50.814;6.590;2022-09-09T04:46:30;4.88;;;0.90;;
20144;SDS011;10233;50.814;6.590;2022-09-09T04:47:31;2.78;;;1.00;;
20144;SDS011;10233;50.814;6.590;2022-09-09T04:48:32;4.07;;;0.90;;
20144;SDS011;10233;50.814;6.590;2022-09-09T04:49:34;5.22;;;0.98;;
20144;SDS011;10233;50.814;6.590;2022-09-09T04:50:34;4.90;;;1.10;;
20144;SDS011;10233;50.814;6.590;2022-09-09T04:51:35;2.70;;;0.90;;
20144;SDS011;10233;50.814;6.590;2022-09-09T04:52:35;3.23;;;0.97;;
20144;SDS011;10233;50.814;6.590;2022-09-09T04:53:36;5.85;;;0.90;;
20144;SDS011;10233;50.814;6.590;2022-09-09T04:54:38;3.75;;;0.90;;
20144;SDS011;10233;50.814;6.590;2022-09-09T04:55:39;5.82;;;1.10;;
20144;SDS011;10233;50.814;6.590;2022-09-09T04:56:40;5.15;;;1.20;;
20144;SDS011;10233;50.814;6.590;2022-09-09T04:57:42;5.75;;;1.20;;
20144;SDS011;10233;50.814;6.590;2022-09-09T04:58:45;4.38;;;1.13;;
20144;SDS011;10233;50.814;6.590;2022-09-09T04:59:46;4.43;;;0.88;;
20144;SDS011;10233;50.814;6.590;2022-09-09T05:00:48;5.07;;;1.08;;
20144;SDS011;10233;50.814;6.590;2022-09-09T05:01:49;5.10;;;1.25;;
20144;SDS011;10233;50.814;6.590;2022-09-09T05:02:50;3.17;;;0.98;;
20144;SDS011;10233;50.814;6.590;2022-09-09T05:03:51;3.25;;;1.02;;
20144;SDS011;10233;50.814;6.590;2022-09-09T05:04:56;4.45;;;0.90;;
20144;SDS011;10233;50.814;6.590;2022-09-09T05:06:04;3.30;;;0.98;;
20144;SDS011;10233;50.814;6.590;2022-09-09T05:07:04;2.25;;;1.02;;
20144;SDS011;10233;50.814;6.590;2022-09-09T05:08:06;3.55;;;1.10;;
20144;SDS011;10233;50.814;6.590;2022-09-09T05:09:08;4.05;;;0.90;;
20144;SDS011;10233;50.814;6.590;2022-09-09T05:10:09;4.20;;;0.90;;
20144;SDS011;10233;50.814;6.590;2022-09-09T05:11:17;3.63;;;1.10;;
20144;SDS011;10233;50.814;6.590;2022-09-09T05:12:25;4.33;;;1.03;;
20144;SDS011;10233;50.814;6.590;2022-09-09T05:13:26;2.30;;;0.90;;
20144;SDS011;10233;50.814;6.590;2022-09-09T05:14:28;2.77;;;0.80;;
20144;SDS011;10233;50.814;6.590;2022-09-09T05:15:29;4.43;;;1.05;;
20144;SDS011;10233;50.814;6.590;2022-09-09T05:16:30;2.70;;;1.00;;
20144;SDS011;10233;50.814;6.590;2022-09-09T05:17:31;6.50;;;1.05;;
20144;SDS011;10233;50.814;6.590;2022-09-09T05:18:31;3.67;;;1.10;;
20144;SDS011;10233;50.814;6.590;2022-09-09T05:19:33;1.98;;;0.90;;
20144;SDS011;10233;50.814;6.590;2022-09-09T05:20:33;4.63;;;1.10;;
20144;SDS011;10233;50.814;6.590;2022-09-09T05:21:35;5.63;;;1.67;;
20144;SDS011;10233;50.814;6.590;2022-09-09T05:22:36;7.67;;;1.20;;
20144;SDS011;10233;50.814;6.590;2022-09-09T05:23:37;2.90;;;1.05;;
20144;SDS011;10233;50.814;6.590;2022-09-09T05:24:38;4.65;;;1.20;;
20144;SDS011;10233;50.814;6.590;2022-09-09T05:25:39;5.22;;;1.15;;
20144;SDS011;10233;50.814;6.590;2022-09-09T05:26:41;4.10;;;0.80;;
20144;SDS011;10233;50.814;6.590;2022-09-09T05:27:43;3.40;;;1.10;;
20144;SDS011;10233;50.814;6.590;2022-09-09T05:28:44;6.20;;;1.03;;
20144;SDS011;10233;50.814;6.590;2022-09-09T05:29:47;3.00;;;0.90;;
20144;SDS011;10233;50.814;6.590;2022-09-09T05:30:54;2.30;;;0.68;;
20144;SDS011;10233;50.814;6.590;2022-09-09T05:31:56;1.45;;;0.80;;
20144;SDS011;10233;50.814;6.590;2022-09-09T05:32:56;3.15;;;0.70;;
20144;SDS011;10233;50.814;6.590;2022-09-09T05:33:57;5.03;;;0.87;;
20144;SDS011;10233;50.814;6.590;2022-09-09T05:34:58;2.53;;;0.82;;
20144;SDS011;10233;50.814;6.590;2022-09-09T05:36:00;2.80;;;0.83;;
20144;SDS011;10233;50.814;6.590;2022-09-09T05:37:03;4.15;;;0.90;;
20144;SDS011;10233;50.814;6.590;2022-09-09T05:38:05;4.22;;;1.15;;
20144;SDS011;10233;50.814;6.590;2022-09-09T05:39:05;2.83;;;0.70;;
20144;SDS011;10233;50.814;6.590;2022-09-09T05:40:07;4.03;;;0.90;;
20144;SDS011;10233;50.814;6.590;2022-09-09T05:41:09;2.70;;;0.80;;
20144;SDS011;10233;50.814;6.590;2022-09-09T05:42:11;7.97;;;1.27;;
20144;SDS011;10233;50.814;6.590;2022-09-09T05:43:12;4.05;;;1.00;;
20144;SDS011;10233;50.814;6.590;2022-09-09T05:44:13;2.53;;;0.77;;
20144;SDS011;10233;50.814;6.590;2022-09-09T05:45:14;2.63;;;0.70;;
20144;SDS011;10233;50.814;6.590;2022-09-09T05:46:15;4.72;;;0.82;;
20144;SDS011;10233;50.814;6.590;2022-09-09T05:47:17;4.20;;;0.73;;
20144;SDS011;10233;50.814;6.590;2022-09-09T05:48:18;4.40;;;0.83;;
20144;SDS011;10233;50.814;6.590;2022-09-09T05:49:19;3.75;;;0.70;;
20144;SDS011;10233;50.814;6.590;2022-09-09T05:50:21;3.47;;;0.80;;
20144;SDS011;10233;50.814;6.590;2022-09-09T05:51:25;4.00;;;0.95;;
20144;SDS011;10233;50.814;6.590;2022-09-09T05:52:30;6.95;;;1.48;;
20144;SDS011;10233;50.814;6.590;2022-09-09T05:53:32;6.27;;;0.97;;
20144;SDS011;10233;50.814;6.590;2022-09-09T05:54:34;4.32;;;0.98;;
20144;SDS011;10233;50.814;6.590;2022-09-09T05:55:36;3.75;;;0.82;;
20144;SDS011;10233;50.814;6.590;2022-09-09T05:56:37;4.55;;;1.00;;
20144;SDS011;10233;50.814;6.590;2022-09-09T05:57:37;2.57;;;0.80;;
20144;SDS011;10233;50.814;6.590;2022-09-09T05:58:39;4.32;;;1.02;;
20144;SDS011;10233;50.814;6.590;2022-09-09T05:59:42;5.20;;;0.80;;
20144;SDS011;10233;50.814;6.590;2022-09-09T06:00:43;4.68;;;1.02;;
20144;SDS011;10233;50.814;6.590;2022-09-09T06:01:44;2.30;;;0.60;;
20144;SDS011;10233;50.814;6.590;2022-09-09T06:02:53;5.20;;;1.10;;
20144;SDS011;10233;50.814;6.590;2022-09-09T06:03:55;5.65;;;1.23;;
20144;SDS011;10233;50.814;6.590;2022-09-09T06:04:57;3.65;;;0.90;;
20144;SDS011;10233;50.814;6.590;2022-09-09T06:06:02;4.80;;;0.88;;
20144;SDS011;10233;50.814;6.590;2022-09-09T06:07:07;5.75;;;1.00;;
20144;SDS011;10233;50.814;6.590;2022-09-09T06:08:08;3.65;;;0.88;;
20144;SDS011;10233;50.814;6.590;2022-09-09T06:09:09;2.90;;;0.80;;
20144;SDS011;10233;50.814;6.590;2022-09-09T06:10:11;5.53;;;1.00;;
20144;SDS011;10233;50.814;6.590;2022-09-09T06:11:19;4.32;;;0.80;;
20144;SDS011;10233;50.814;6.590;2022-09-09T06:12:23;4.85;;;1.08;;
20144;SDS011;10233;50.814;6.590;2022-09-09T06:13:25;10.43;;;1.02;;
20144;SDS011;10233;50.814;6.590;2022-09-09T06:14:26;3.85;;;0.77;;
20144;SDS011;10233;50.814;6.590;2022-09-09T06:15:28;2.67;;;0.70;;
20144;SDS011;10233;50.814;6.590;2022-09-09T06:16:30;3.13;;;1.08;;
20144;SDS011;10233;50.814;6.590;2022-09-09T06:17:34;3.90;;;1.10;;
20144;SDS011;10233;50.814;6.590;2022-09-09T06:18:35;3.57;;;0.90;;
20144;SDS011;10233;50.814;6.590;2022-09-09T06:19:35;4.75;;;0.90;;
20144;SDS011;10233;50.814;6.590;2022-09-09T06:20:36;3.97;;;0.93;;
20144;SDS011;10233;50.814;6.590;2022-09-09T06:21:37;3.92;;;0.70;;
20144;SDS011;10233;50.814;6.590;2022-09-09T06:22:40;3.85;;;0.82;;
20144;SDS011;10233;50.814;6.590;2022-09-09T06:23:41;4.63;;;1.10;;
20144;SDS011;10233;50.814;6.590;2022-09-09T06:24:42;3.60;;;1.10;;
20144;SDS011;10233;50.814;6.590;2022-09-09T06:25:42;6.17;;;0.87;;
20144;SDS011;10233;50.814;6.590;2022-09-09T06:26:43;8.27;;;1.13;;
20144;SDS011;10233;50.814;6.590;2022-09-09T06:27:51;3.70;;;0.90;;
20144;SDS011;10233;50.814;6.590;2022-09-09T06:28:52;4.97;;;0.90;;
20144;SDS011;10233;50.814;6.590;2022-09-09T06:29:54;3.53;;;0.90;;
20144;SDS011;10233;50.814;6.590;2022-09-09T06:31:01;3.87;;;0.93;;
20144;SDS011;10233;50.814;6.590;2022-09-09T06:32:04;4.22;;;0.95;;
20144;SDS011;10233;50.814;6.590;2022-09-09T06:33:05;1.58;;;0.65;;
20144;SDS011;10233;50.814;6.590;2022-09-09T06:34:06;2.07;;;0.73;;
20144;SDS011;10233;50.814;6.590;2022-09-09T06:35:08;2.75;;;0.88;;
20144;SDS011;10233;50.814;6.590;2022-09-09T06:36:12;5.50;;;1.00;;
20144;SDS011;10233;50.814;6.590;2022-09-09T06:37:15;2.63;;;0.90;;
20144;SDS011;10233;50.814;6.590;2022-09-09T06:38:21;3.35;;;0.80;;
20144;SDS011;10233;50.814;6.590;2022-09-09T06:39:22;3.85;;;1.02;;
20144;SDS011;10233;50.814;6.590;2022-09-09T06:40:24;3.77;;;0.80;;
20144;SDS011;10233;50.814;6.590;2022-09-09T06:41:26;7.47;;;1.10;;
20144;SDS011;10233;50.814;6.590;2022-09-09T06:42:30;2.80;;;0.82;;
20144;SDS011;10233;50.814;6.590;2022-09-09T06:43:52;6.17;;;1.10;;
20144;SDS011;10233;50.814;6.590;2022-09-09T06:45:01;5.28;;;1.17;;
20144;SDS011;10233;50.814;6.590;2022-09-09T06:46:11;6.70;;;0.85;;
20144;SDS011;10233;50.814;6.590;2022-09-09T06:47:13;2.70;;;0.90;;
20144;SDS011;10233;50.814;6.590;2022-09-09T06:48:15;12.50;;;1.25;;
20144;SDS011;10233;50.814;6.590;2022-09-09T06:49:16;12.98;;;1.48;;
20144;SDS011;10233;50.814;6.590;2022-09-09T06:50:17;3.20;;;1.10;;
20144;SDS011;10233;50.814;6.590;2022-09-09T06:51:19;4.43;;;0.93;;
20144;SDS011;10233;50.814;6.590;2022-09-09T06:52:24;4.40;;;1.10;;
20144;SDS011;10233;50.814;6.590;2022-09-09T06:53:25;5.60;;;1.10;;
20144;SDS011;10233;50.814;6.590;2022-09-09T06:54:26;1.85;;;0.85;;
20144;SDS011;10233;50.814;6.590;2022-09-09T06:55:26;2.25;;;0.70;;
20144;SDS011;10233;50.814;6.590;2022-09-09T06:57:29;5.55;;;1.10;;
20144;SDS011;10233;50.814;6.590;2022-09-09T06:58:30;4.15;;;0.68;;
20144;SDS011;10233;50.814;6.590;2022-09-09T06:59:33;3.38;;;1.10;;
20144;SDS011;10233;50.814;6.590;2022-09-09T07:00:33;5.97;;;1.30;;
20144;SDS011;10233;50.814;6.590;2022-09-09T07:01:35;3.45;;;1.20;;
20144;SDS011;10233;50.814;6.590;2022-09-09T07:02:40;9.30;;;1.92;;
20144;SDS011;10233;50.814;6.590;2022-09-09T07:03:44;4.82;;;1.05;;
20144;SDS011;10233;50.814;6.590;2022-09-09T07:04:48;2.70;;;0.88;;
20144;SDS011;10233;50.814;6.590;2022-09-09T07:05:54;4.82;;;1.05;;
20144;SDS011;10233;50.814;6.590;2022-09-09T07:06:56;4.68;;;0.98;;
20144;SDS011;10233;50.814;6.590;2022-09-09T07:07:59;5.83;;;1.00;;